createdAt,value
2024-03-13T00:00:17.845Z,83.21
2024-03-13T00:00:49.816Z,83.07
2024-03-13T00:01:22.469Z,82.54
2024-03-13T00:01:54.668Z,82.65
2024-03-13T00:02:26.527Z,83.02
2024-03-13T00:02:59.813Z,83.76
2024-03-13T00:03:33.372Z,83.85
2024-03-13T00:04:06.482Z,83.91
2024-03-13T00:04:47.364Z,83.69
2024-03-13T00:05:22.395Z,83.28
2024-03-13T00:05:57.016Z,83.49
2024-03-13T00:06:29.333Z,83.74
2024-03-13T00:07:02.276Z,83.72
2024-03-13T00:07:34.127Z,83.36
2024-03-13T00:08:08.330Z,83.58
2024-03-13T00:08:41.049Z,83.99
2024-03-13T00:09:13.642Z,83.54
2024-03-13T00:09:47.034Z,83.47
2024-03-13T00:10:19.369Z,83.36
2024-03-13T00:10:51.781Z,83.78
2024-03-13T00:11:27.035Z,84.12
2024-03-13T00:11:58.893Z,84.01
2024-03-13T00:12:31.684Z,84.47
2024-03-13T00:13:03.565Z,84.22
2024-03-13T00:13:35.553Z,83.71
2024-03-13T00:14:07.679Z,84.21
2024-03-13T00:14:39.523Z,84.03
2024-03-13T00:15:12.360Z,84.57
2024-03-13T00:15:45.633Z,84.93
2024-03-13T00:16:17.569Z,84.77
2024-03-13T00:16:49.432Z,84.96
2024-03-13T00:17:21.601Z,84.46
2024-03-13T00:17:53.504Z,84.20
2024-03-13T00:18:25.450Z,84.02
2024-03-13T00:18:57.330Z,84.19
2024-03-13T00:19:29.219Z,84.16
2024-03-13T00:20:01.197Z,84.20
2024-03-13T00:20:33.090Z,83.99
2024-03-13T00:21:05.616Z,83.97
2024-03-13T00:21:40.150Z,83.97
2024-03-13T00:22:13.992Z,83.68
2024-03-13T00:22:46.718Z,83.59
2024-03-13T00:23:19.580Z,83.65
2024-03-13T00:23:53.789Z,84.45
2024-03-13T00:24:25.670Z,84.32
2024-03-13T00:24:58.297Z,84.90
2024-03-13T00:25:30.493Z,84.34
2024-03-13T00:26:02.340Z,84.13
2024-03-13T00:26:34.951Z,84.48
2024-03-13T00:27:07.010Z,84.62
2024-03-13T00:27:40.646Z,84.57
2024-03-13T00:28:12.720Z,84.63
2024-03-13T00:28:44.565Z,84.64
2024-03-13T00:29:16.367Z,84.62
2024-03-13T00:29:49.507Z,84.65
2024-03-13T00:30:22.119Z,84.82
2024-03-13T00:30:54.011Z,84.70
2024-03-13T00:31:25.929Z,84.52
2024-03-13T00:31:57.791Z,84.23
2024-03-13T00:32:29.664Z,84.05
2024-03-13T00:33:01.607Z,83.74
2024-03-13T00:33:33.460Z,84.22
2024-03-13T00:34:07.613Z,84.15
2024-03-13T00:34:39.872Z,83.65
2024-03-13T00:35:14.574Z,83.84
2024-03-13T00:35:46.413Z,84.04
2024-03-13T00:36:20.444Z,83.45
2024-03-13T00:36:52.329Z,83.78
2024-03-13T00:37:24.454Z,84.14
2024-03-13T00:37:56.453Z,84.29
2024-03-13T00:38:28.249Z,84.56
2024-03-13T00:39:00.119Z,84.20
2024-03-13T00:39:32.249Z,84.56
2024-03-13T00:40:07.636Z,84.62
2024-03-13T00:40:40.362Z,85.08
2024-03-13T00:41:12.222Z,84.79
2024-03-13T00:41:44.765Z,84.65
2024-03-13T00:42:17.455Z,84.47
2024-03-13T00:42:49.284Z,84.73
2024-03-13T00:43:22.067Z,84.58
2024-03-13T00:43:54.587Z,84.34
2024-03-13T00:44:26.522Z,84.46
2024-03-13T00:44:58.992Z,84.55
2024-03-13T00:45:30.827Z,84.29
2024-03-13T00:46:02.745Z,83.88
2024-03-13T00:46:35.098Z,83.72
2024-03-13T00:47:07.955Z,84.04
2024-03-13T00:47:40.072Z,84.19
2024-03-13T00:48:12.401Z,83.73
2024-03-13T00:48:44.350Z,83.92
2024-03-13T00:49:16.638Z,84.01
2024-03-13T00:49:48.481Z,83.96
2024-03-13T00:50:20.340Z,84.23
2024-03-13T00:50:52.144Z,84.18
2024-03-13T00:51:24.461Z,83.98
2024-03-13T00:51:56.318Z,84.11
2024-03-13T00:52:29.984Z,83.62
2024-03-13T00:53:02.301Z,83.58
2024-03-13T00:53:34.111Z,83.89
2024-03-13T00:54:06.057Z,84.38
2024-03-13T00:54:38.153Z,84.02
2024-03-13T00:55:12.023Z,84.05
2024-03-13T00:55:44.180Z,83.85
2024-03-13T00:56:17.053Z,84.12
2024-03-13T00:56:49.529Z,83.92
2024-03-13T00:57:21.497Z,84.15
2024-03-13T00:57:53.334Z,83.69
2024-03-13T00:58:25.283Z,83.33
2024-03-13T00:58:57.406Z,83.46
2024-03-13T00:59:30.826Z,83.74
2024-03-13T01:00:05.425Z,84.34
2024-03-13T01:00:38.272Z,83.83
2024-03-13T01:01:12.408Z,84.06
2024-03-13T01:01:49.631Z,83.41
2024-03-13T01:02:24.267Z,83.41
2024-03-13T01:02:56.220Z,83.34
2024-03-13T01:03:29.452Z,83.21
2024-03-13T01:04:01.339Z,83.19
2024-03-13T01:04:34.339Z,83.73
2024-03-13T01:05:06.299Z,83.39
2024-03-13T01:05:38.188Z,83.65
2024-03-13T01:06:09.992Z,83.57
2024-03-13T01:06:42.246Z,83.99
2024-03-13T01:07:14.130Z,83.72
2024-03-13T01:07:50.111Z,83.76
2024-03-13T01:08:22.244Z,83.41
2024-03-13T01:08:54.071Z,83.57
2024-03-13T01:09:25.940Z,83.53
2024-03-13T01:09:57.808Z,83.72
2024-03-13T01:10:29.669Z,83.49
2024-03-13T01:11:02.067Z,83.47
2024-03-13T01:11:35.283Z,84.13
2024-03-13T01:12:08.140Z,84.00
2024-03-13T01:12:40.888Z,83.93
2024-03-13T01:13:12.805Z,84.37
2024-03-13T01:13:44.697Z,84.56
2024-03-13T01:14:21.113Z,84.59
2024-03-13T01:14:52.979Z,84.34
2024-03-13T01:15:25.181Z,84.26
2024-03-13T01:15:57.119Z,84.27
2024-03-13T01:16:29.031Z,83.81
2024-03-13T01:17:02.687Z,84.21
2024-03-13T01:17:35.848Z,84.47
2024-03-13T01:18:10.730Z,84.16
2024-03-13T01:18:42.884Z,85.13
2024-03-13T01:19:14.808Z,84.79
2024-03-13T01:19:46.725Z,84.99
2024-03-13T01:20:20.177Z,84.75
2024-03-13T01:20:51.988Z,84.50
2024-03-13T01:21:23.787Z,84.31
2024-03-13T01:22:06.763Z,84.00
2024-03-13T01:22:41.106Z,84.18
2024-03-13T01:23:12.912Z,84.25
2024-03-13T01:23:44.818Z,84.26
2024-03-13T01:24:18.212Z,84.03
2024-03-13T01:24:50.065Z,84.10
2024-03-13T01:25:21.939Z,84.77
2024-03-13T01:25:55.723Z,84.47
2024-03-13T01:26:27.692Z,84.64
2024-03-13T01:27:00.115Z,84.50
2024-03-13T01:27:31.964Z,84.08
2024-03-13T01:28:04.087Z,84.38
2024-03-13T01:28:39.468Z,84.16
2024-03-13T01:29:11.313Z,83.98
2024-03-13T01:29:47.546Z,83.95
2024-03-13T01:30:19.658Z,84.26
2024-03-13T01:30:51.502Z,84.22
2024-03-13T01:31:24.949Z,84.42
2024-03-13T01:31:59.928Z,84.81
2024-03-13T01:32:31.959Z,85.10
2024-03-13T01:33:04.092Z,85.01
2024-03-13T01:33:42.178Z,84.39
2024-03-13T01:34:14.050Z,84.71
2024-03-13T01:34:47.867Z,84.47
2024-03-13T01:35:20.589Z,84.34
2024-03-13T01:35:52.955Z,84.66
2024-03-13T01:36:44.869Z,84.46
2024-03-13T01:37:35.280Z,85.05
2024-03-13T01:38:07.142Z,84.67
2024-03-13T01:38:39.071Z,84.28
2024-03-13T01:39:11.091Z,84.08
2024-03-13T01:39:43.027Z,84.47
2024-03-13T01:40:20.488Z,83.98
2024-03-13T01:41:11.062Z,82.68
2024-03-13T01:42:03.581Z,83.61
2024-03-13T01:42:54.066Z,83.36
2024-03-13T01:43:44.675Z,83.61
2024-03-13T01:44:34.834Z,84.19
2024-03-13T01:45:49.472Z,83.57
2024-03-13T01:46:40.643Z,84.30
2024-03-13T01:47:35.582Z,83.88
2024-03-13T01:48:43.457Z,84.07
2024-03-13T01:49:39.008Z,83.95
2024-03-13T01:50:37.057Z,83.83
2024-03-13T01:51:27.418Z,83.80
2024-03-13T01:52:24.106Z,83.99
2024-03-13T01:53:18.719Z,83.74
2024-03-13T01:54:09.184Z,83.75
2024-03-13T01:54:52.206Z,83.12
2024-03-13T01:55:29.839Z,82.94
2024-03-13T01:56:22.238Z,83.16
2024-03-13T01:57:01.893Z,83.53
2024-03-13T01:57:56.975Z,83.42
2024-03-13T01:58:41.217Z,83.74
2024-03-13T01:59:24.855Z,82.96
2024-03-13T02:00:16.381Z,83.81
2024-03-13T02:01:06.984Z,83.81
2024-03-13T02:01:57.453Z,84.04
2024-03-13T02:02:29.626Z,84.04
2024-03-13T02:03:01.896Z,83.76
2024-03-13T02:03:33.790Z,83.63
2024-03-13T02:04:06.131Z,83.49
2024-03-13T02:04:38.017Z,83.44
2024-03-13T02:05:10.398Z,83.78
2024-03-13T02:05:46.165Z,83.97
2024-03-13T02:06:18.250Z,84.07
2024-03-13T02:06:51.497Z,84.27
2024-03-13T02:07:25.019Z,83.69
2024-03-13T02:07:56.999Z,83.66
2024-03-13T02:08:33.623Z,83.33
2024-03-13T02:09:07.399Z,83.38
2024-03-13T02:09:39.317Z,83.45
2024-03-13T02:10:11.492Z,83.85
2024-03-13T02:10:43.587Z,83.61
2024-03-13T02:11:15.485Z,83.68
2024-03-13T02:11:47.590Z,83.29
2024-03-13T02:12:19.473Z,83.37
2024-03-13T02:13:04.563Z,82.86
2024-03-13T02:13:40.203Z,83.26
2024-03-13T02:14:12.002Z,83.42
2024-03-13T02:14:44.172Z,83.10
2024-03-13T02:15:16.014Z,83.45
2024-03-13T02:15:47.980Z,82.90
2024-03-13T02:16:19.895Z,82.70
2024-03-13T02:16:53.617Z,82.97
2024-03-13T02:17:25.822Z,82.96
2024-03-13T02:18:03.546Z,83.03
2024-03-13T02:18:36.982Z,82.69
2024-03-13T02:19:09.110Z,82.73
2024-03-13T02:19:41.496Z,83.14
2024-03-13T02:20:16.643Z,82.33
2024-03-13T02:20:50.209Z,82.32
2024-03-13T02:21:22.047Z,81.83
2024-03-13T02:21:59.241Z,82.34
2024-03-13T02:22:31.745Z,82.58
2024-03-13T02:23:07.063Z,82.01
2024-03-13T02:23:40.415Z,82.05
2024-03-13T02:24:13.181Z,81.86
2024-03-13T02:24:45.568Z,82.20
2024-03-13T02:25:17.478Z,81.82
2024-03-13T02:25:52.600Z,82.12
2024-03-13T02:26:26.094Z,81.92
2024-03-13T02:26:58.063Z,81.38
2024-03-13T02:27:29.909Z,81.30
2024-03-13T02:28:02.326Z,81.65
2024-03-13T02:28:35.898Z,81.77
2024-03-13T02:29:08.346Z,81.88
2024-03-13T02:29:44.110Z,82.07
2024-03-13T02:30:15.979Z,81.35
2024-03-13T02:30:48.766Z,81.72
2024-03-13T02:31:21.052Z,81.23
2024-03-13T02:31:53.202Z,80.73
2024-03-13T02:32:25.034Z,80.92
2024-03-13T02:32:56.913Z,81.13
2024-03-13T02:33:29.559Z,81.15
2024-03-13T02:34:01.480Z,81.17
2024-03-13T02:34:33.481Z,81.09
2024-03-13T02:35:05.497Z,81.36
2024-03-13T02:35:37.332Z,81.07
2024-03-13T02:36:09.664Z,81.07
2024-03-13T02:36:41.477Z,80.76
2024-03-13T02:37:13.372Z,80.53
2024-03-13T02:37:45.586Z,80.75
2024-03-13T02:38:17.420Z,80.87
2024-03-13T02:38:50.723Z,80.68
2024-03-13T02:39:22.605Z,80.85
2024-03-13T02:39:54.508Z,80.95
2024-03-13T02:40:26.386Z,81.01
2024-03-13T02:40:58.325Z,80.84
2024-03-13T02:41:30.159Z,80.99
2024-03-13T02:42:02.777Z,80.66
2024-03-13T02:42:34.640Z,80.77
2024-03-13T02:43:06.471Z,80.75
2024-03-13T02:43:41.465Z,80.86
2024-03-13T02:44:13.262Z,81.10
2024-03-13T02:44:45.305Z,81.19
2024-03-13T02:45:17.725Z,81.36
2024-03-13T02:45:49.933Z,80.83
2024-03-13T02:46:21.806Z,80.97
2024-03-13T02:46:55.286Z,81.24
2024-03-13T02:47:27.156Z,81.43
2024-03-13T02:47:59.240Z,82.21
2024-03-13T02:48:31.064Z,81.82
2024-03-13T02:49:02.956Z,81.93
2024-03-13T02:49:37.065Z,81.83
2024-03-13T02:50:13.005Z,82.01
2024-03-13T02:50:46.093Z,82.10
2024-03-13T02:51:17.966Z,81.79
2024-03-13T02:51:49.833Z,81.84
2024-03-13T02:52:21.981Z,82.16
2024-03-13T02:52:53.893Z,81.70
2024-03-13T02:53:25.772Z,81.98
2024-03-13T02:53:58.279Z,82.31
2024-03-13T02:54:30.131Z,82.06
2024-03-13T02:55:02.010Z,82.15
2024-03-13T02:55:34.440Z,82.08
2024-03-13T02:56:09.061Z,82.44
2024-03-13T02:56:40.884Z,81.70
2024-03-13T02:57:12.722Z,82.01
2024-03-13T02:57:46.028Z,82.09
2024-03-13T02:58:17.956Z,82.04
2024-03-13T02:58:50.484Z,82.29
2024-03-13T02:59:22.311Z,82.26
2024-03-13T02:59:54.157Z,82.13
2024-03-13T03:00:26.967Z,82.28
2024-03-13T03:00:59.991Z,82.34
2024-03-13T03:01:32.006Z,82.67
2024-03-13T03:02:07.232Z,82.54
2024-03-13T03:02:41.216Z,82.30
2024-03-13T03:03:14.489Z,82.26
2024-03-13T03:03:46.461Z,82.05
2024-03-13T03:04:19.982Z,82.16
2024-03-13T03:04:52.289Z,81.97
2024-03-13T03:05:25.424Z,81.78
2024-03-13T03:05:57.868Z,82.19
2024-03-13T03:06:29.697Z,82.59
2024-03-13T03:07:02.237Z,82.35
2024-03-13T03:07:35.164Z,82.48
2024-03-13T03:08:08.276Z,82.12
2024-03-13T03:08:43.222Z,82.22
2024-03-13T03:09:15.051Z,82.42
2024-03-13T03:09:46.894Z,82.39
2024-03-13T03:10:19.019Z,82.67
2024-03-13T03:10:51.723Z,82.06
2024-03-13T03:11:26.754Z,81.64
2024-03-13T03:11:58.627Z,81.97
2024-03-13T03:12:30.487Z,81.88
2024-03-13T03:13:02.354Z,82.73
2024-03-13T03:13:34.432Z,82.58
2024-03-13T03:14:06.435Z,82.75
2024-03-13T03:14:38.331Z,82.81
2024-03-13T03:15:13.244Z,82.90
2024-03-13T03:15:45.813Z,82.36
2024-03-13T03:16:19.475Z,82.29
2024-03-13T03:16:51.439Z,82.41
2024-03-13T03:17:23.801Z,82.65
2024-03-13T03:17:55.804Z,82.68
2024-03-13T03:18:27.772Z,82.84
2024-03-13T03:19:01.096Z,83.11
2024-03-13T03:19:35.429Z,83.13
2024-03-13T03:20:07.921Z,83.17
2024-03-13T03:20:41.114Z,82.89
2024-03-13T03:21:14.202Z,82.68
2024-03-13T03:21:46.092Z,82.81
2024-03-13T03:22:20.750Z,83.07
2024-03-13T03:22:52.650Z,83.05
2024-03-13T03:23:24.477Z,83.15
2024-03-13T03:23:58.792Z,83.17
2024-03-13T03:24:33.423Z,83.00
2024-03-13T03:25:06.869Z,83.01
2024-03-13T03:25:39.106Z,83.06
2024-03-13T03:26:17.702Z,83.18
2024-03-13T03:26:49.538Z,83.02
2024-03-13T03:27:21.401Z,83.30
2024-03-13T03:27:53.261Z,82.78
2024-03-13T03:28:25.154Z,82.55
2024-03-13T03:28:59.896Z,82.45
2024-03-13T03:29:31.700Z,82.85
2024-03-13T03:30:05.008Z,82.49
2024-03-13T03:30:42.857Z,82.39
2024-03-13T03:31:14.915Z,82.79
2024-03-13T03:31:46.766Z,82.60
2024-03-13T03:32:18.855Z,82.54
2024-03-13T03:32:50.811Z,82.59
2024-03-13T03:33:22.666Z,82.57
2024-03-13T03:33:54.548Z,82.54
2024-03-13T03:34:26.573Z,82.16
2024-03-13T03:34:58.457Z,82.15
2024-03-13T03:35:30.698Z,82.00
2024-03-13T03:36:03.007Z,81.83
2024-03-13T03:36:34.841Z,81.72
2024-03-13T03:37:07.208Z,81.78
2024-03-13T03:37:39.445Z,82.29
2024-03-13T03:38:11.407Z,82.94
2024-03-13T03:38:43.215Z,82.46
2024-03-13T03:39:16.336Z,82.20
2024-03-13T03:39:49.490Z,82.22
2024-03-13T03:40:24.385Z,82.26
2024-03-13T03:40:56.475Z,82.34
2024-03-13T03:41:28.337Z,82.46
2024-03-13T03:42:00.228Z,82.50
2024-03-13T03:42:32.428Z,82.76
2024-03-13T03:43:05.560Z,82.45
2024-03-13T03:43:38.658Z,82.64
2024-03-13T03:44:12.501Z,83.01
2024-03-13T03:44:44.313Z,82.70
2024-03-13T03:45:18.053Z,82.48
2024-03-13T03:45:51.054Z,82.39
2024-03-13T03:46:22.955Z,82.04
2024-03-13T03:46:54.799Z,82.95
2024-03-13T03:47:26.660Z,82.50
2024-03-13T03:48:04.785Z,82.43
2024-03-13T03:48:42.690Z,82.79
2024-03-13T03:49:14.583Z,82.43
2024-03-13T03:49:46.416Z,82.67
2024-03-13T03:50:18.444Z,82.54
2024-03-13T03:50:50.295Z,82.76
2024-03-13T03:51:22.097Z,83.05
2024-03-13T03:51:54.028Z,82.88
2024-03-13T03:52:25.938Z,83.59
2024-03-13T03:52:57.825Z,83.43
2024-03-13T03:53:29.685Z,82.87
2024-03-13T03:54:02.044Z,83.41
2024-03-13T03:54:35.603Z,83.52
2024-03-13T03:55:07.836Z,83.23
2024-03-13T03:55:39.732Z,82.98
2024-03-13T03:56:13.757Z,83.29
2024-03-13T03:56:46.904Z,83.69
2024-03-13T03:57:20.911Z,83.67
2024-03-13T03:57:52.773Z,83.48
2024-03-13T03:58:24.724Z,83.04
2024-03-13T03:58:56.605Z,82.83
2024-03-13T03:59:28.534Z,83.70
2024-03-13T04:00:01.838Z,83.07
2024-03-13T04:00:36.688Z,83.53
2024-03-13T04:01:09.058Z,83.26
2024-03-13T04:01:43.202Z,83.23
2024-03-13T04:02:17.616Z,83.17
2024-03-13T04:02:49.576Z,83.33
2024-03-13T04:03:21.438Z,83.16
2024-03-13T04:03:53.386Z,82.65
2024-03-13T04:04:27.427Z,83.02
2024-03-13T04:04:59.375Z,83.16
2024-03-13T04:05:31.775Z,83.32
2024-03-13T04:06:04.744Z,83.19
2024-03-13T04:06:36.595Z,83.16
2024-03-13T04:07:09.317Z,83.23
2024-03-13T04:07:41.292Z,83.54
2024-03-13T04:08:15.431Z,83.04
2024-03-13T04:08:49.065Z,83.05
2024-03-13T04:09:21.596Z,82.98
2024-03-13T04:09:53.706Z,83.13
2024-03-13T04:10:25.714Z,83.19
2024-03-13T04:10:57.694Z,83.02
2024-03-13T04:11:30.609Z,83.49
2024-03-13T04:12:02.511Z,83.86
2024-03-13T04:12:35.141Z,83.87
2024-03-13T04:13:07.116Z,83.56
2024-03-13T04:13:42.004Z,83.33
2024-03-13T04:14:13.958Z,83.06
2024-03-13T04:14:45.804Z,82.65
2024-03-13T04:15:22.526Z,82.61
2024-03-13T04:15:54.564Z,83.38
2024-03-13T04:16:26.909Z,82.81
2024-03-13T04:16:58.827Z,82.27
2024-03-13T04:17:30.635Z,82.49
2024-03-13T04:18:04.809Z,82.21
2024-03-13T04:18:37.230Z,82.59
2024-03-13T04:19:11.874Z,81.65
2024-03-13T04:19:43.850Z,82.09
2024-03-13T04:20:20.067Z,82.39
2024-03-13T04:20:52.043Z,81.91
2024-03-13T04:21:23.868Z,82.19
2024-03-13T04:21:55.770Z,82.86
2024-03-13T04:22:28.598Z,82.51
2024-03-13T04:23:01.419Z,82.41
2024-03-13T04:23:33.268Z,82.27
2024-03-13T04:24:06.341Z,82.59
2024-03-13T04:24:38.188Z,82.74
2024-03-13T04:25:10.072Z,83.03
2024-03-13T04:25:42.077Z,83.09
2024-03-13T04:26:16.192Z,82.85
2024-03-13T04:26:48.014Z,83.04
2024-03-13T04:27:21.104Z,83.38
2024-03-13T04:27:56.142Z,83.22
2024-03-13T04:28:28.326Z,82.82
2024-03-13T04:29:00.238Z,82.45
2024-03-13T04:29:38.685Z,82.45
2024-03-13T04:30:15.480Z,82.69
2024-03-13T04:30:50.013Z,82.87
2024-03-13T04:31:21.910Z,83.26
2024-03-13T04:31:53.809Z,82.95
2024-03-13T04:32:26.486Z,83.65
2024-03-13T04:32:59.294Z,83.35
2024-03-13T04:33:31.194Z,83.79
2024-03-13T04:34:03.084Z,83.17
2024-03-13T04:34:35.016Z,83.16
2024-03-13T04:35:07.193Z,83.05
2024-03-13T04:35:39.039Z,83.44
2024-03-13T04:36:10.893Z,82.90
2024-03-13T04:36:42.736Z,82.63
2024-03-13T04:37:16.554Z,83.09
2024-03-13T04:37:48.501Z,82.75
2024-03-13T04:38:20.366Z,83.17
2024-03-13T04:38:52.453Z,83.12
2024-03-13T04:39:24.367Z,83.61
2024-03-13T04:39:58.591Z,83.62
2024-03-13T04:40:30.491Z,83.67
2024-03-13T04:41:02.338Z,83.33
2024-03-13T04:41:34.804Z,83.59
2024-03-13T04:42:06.647Z,83.94
2024-03-13T04:42:38.505Z,84.01
2024-03-13T04:43:10.437Z,83.70
2024-03-13T04:43:42.352Z,83.22
2024-03-13T04:44:14.173Z,83.07
2024-03-13T04:44:46.018Z,83.86
2024-03-13T04:45:17.826Z,83.43
2024-03-13T04:45:49.729Z,83.99
2024-03-13T04:46:21.877Z,83.76
2024-03-13T04:46:53.711Z,83.78
2024-03-13T04:47:26.161Z,83.62
2024-03-13T04:47:58.068Z,83.46
2024-03-13T04:48:29.912Z,83.40
2024-03-13T04:49:01.768Z,83.32
2024-03-13T04:49:33.654Z,83.24
2024-03-13T04:50:05.794Z,83.14
2024-03-13T04:50:37.952Z,82.93
2024-03-13T04:51:10.354Z,82.62
2024-03-13T04:51:42.197Z,82.69
2024-03-13T04:52:14.098Z,83.50
2024-03-13T04:52:46.641Z,83.49
2024-03-13T04:53:24.084Z,83.07
2024-03-13T04:53:55.914Z,82.97
2024-03-13T04:54:27.736Z,83.32
2024-03-13T04:55:00.377Z,83.62
2024-03-13T04:55:32.330Z,83.91
2024-03-13T04:56:07.312Z,83.57
2024-03-13T04:56:39.589Z,83.29
2024-03-13T04:57:11.444Z,83.22
2024-03-13T04:57:43.321Z,82.92
2024-03-13T04:58:15.179Z,83.32
2024-03-13T04:58:47.054Z,83.16
2024-03-13T04:59:18.874Z,83.17
2024-03-13T04:59:51.626Z,83.20
2024-03-13T05:00:23.506Z,83.26
2024-03-13T05:00:55.388Z,83.15
2024-03-13T05:01:27.375Z,83.58
2024-03-13T05:01:59.456Z,83.66
2024-03-13T05:02:31.373Z,83.08
2024-03-13T05:03:04.575Z,82.77
2024-03-13T05:03:36.983Z,83.52
2024-03-13T05:04:08.964Z,83.67
2024-03-13T05:04:40.777Z,83.22
2024-03-13T05:05:18.277Z,82.62
2024-03-13T05:05:50.103Z,83.21
2024-03-13T05:06:22.249Z,83.00
2024-03-13T05:06:57.932Z,82.88
2024-03-13T05:07:29.790Z,82.51
2024-03-13T05:08:03.249Z,82.71
2024-03-13T05:08:35.307Z,82.77
2024-03-13T05:09:08.173Z,82.93
2024-03-13T05:09:42.816Z,82.51
2024-03-13T05:10:18.677Z,83.07
2024-03-13T05:10:51.220Z,82.91
2024-03-13T05:11:23.119Z,82.62
2024-03-13T05:11:54.985Z,82.55
2024-03-13T05:12:27.666Z,82.74
2024-03-13T05:12:59.689Z,82.41
2024-03-13T05:13:32.804Z,82.31
2024-03-13T05:14:04.700Z,82.05
2024-03-13T05:14:36.539Z,81.86
2024-03-13T05:15:09.780Z,82.05
2024-03-13T05:15:41.652Z,82.23
2024-03-13T05:16:14.395Z,81.74
2024-03-13T05:16:46.582Z,82.11
2024-03-13T05:17:18.421Z,82.00
2024-03-13T05:17:50.967Z,82.01
2024-03-13T05:18:23.003Z,81.61
2024-03-13T05:18:54.877Z,81.83
2024-03-13T05:19:26.740Z,81.87
2024-03-13T05:19:59.671Z,81.99
2024-03-13T05:20:31.542Z,81.31
2024-03-13T05:21:03.343Z,81.69
2024-03-13T05:21:35.193Z,81.55
2024-03-13T05:22:07.130Z,82.09
2024-03-13T05:22:39.025Z,82.05
2024-03-13T05:23:10.904Z,82.04
2024-03-13T05:23:42.734Z,81.82
2024-03-13T05:24:17.415Z,81.46
2024-03-13T05:24:50.849Z,81.70
2024-03-13T05:25:25.588Z,81.83
2024-03-13T05:25:57.485Z,81.34
2024-03-13T05:26:29.841Z,80.69
2024-03-13T05:27:01.658Z,80.87
2024-03-13T05:27:33.933Z,80.95
2024-03-13T05:28:05.945Z,81.13
2024-03-13T05:28:38.268Z,80.97
2024-03-13T05:29:10.809Z,80.83
2024-03-13T05:29:42.756Z,81.13
2024-03-13T05:30:14.686Z,80.88
2024-03-13T05:30:46.542Z,80.64
2024-03-13T05:31:18.386Z,80.39
2024-03-13T05:31:51.128Z,81.08
2024-03-13T05:32:23.036Z,81.50
2024-03-13T05:32:54.955Z,81.04
2024-03-13T05:33:26.836Z,80.97
2024-03-13T05:33:58.689Z,80.65
2024-03-13T05:34:30.609Z,80.63
2024-03-13T05:35:02.446Z,80.88
2024-03-13T05:35:34.463Z,80.92
2024-03-13T05:36:08.246Z,81.02
2024-03-13T05:36:40.111Z,80.75
2024-03-13T05:37:13.317Z,80.14
2024-03-13T05:37:45.266Z,80.28
2024-03-13T05:38:18.090Z,80.53
2024-03-13T05:38:50.125Z,80.27
2024-03-13T05:39:22.152Z,80.32
2024-03-13T05:39:54.130Z,79.95
2024-03-13T05:40:26.063Z,79.69
2024-03-13T05:40:59.180Z,79.79
2024-03-13T05:41:31.016Z,79.63
2024-03-13T05:42:02.884Z,79.83
2024-03-13T05:42:34.929Z,80.42
2024-03-13T05:43:06.831Z,80.64
2024-03-13T05:43:39.135Z,80.28
2024-03-13T05:44:11.394Z,80.05
2024-03-13T05:44:43.309Z,80.51
2024-03-13T05:45:15.399Z,80.49
2024-03-13T05:45:47.721Z,80.46
2024-03-13T05:46:19.665Z,80.26
2024-03-13T05:46:52.759Z,81.20
2024-03-13T05:47:24.588Z,80.99
2024-03-13T05:47:56.482Z,80.92
2024-03-13T05:48:28.569Z,80.61
2024-03-13T05:49:00.419Z,80.95
2024-03-13T05:49:32.282Z,80.71
2024-03-13T05:50:04.571Z,80.51
2024-03-13T05:50:36.821Z,80.24
2024-03-13T05:51:09.984Z,80.69
2024-03-13T05:51:42.255Z,80.60
2024-03-13T05:52:14.101Z,80.52
2024-03-13T05:52:49.137Z,80.79
2024-03-13T05:53:21.455Z,80.95
2024-03-13T05:53:53.273Z,81.07
2024-03-13T05:54:25.362Z,80.21
2024-03-13T05:54:57.420Z,80.04
2024-03-13T05:55:29.276Z,80.27
2024-03-13T05:56:01.695Z,80.43
2024-03-13T05:56:33.549Z,80.64
2024-03-13T05:57:05.378Z,80.31
2024-03-13T05:57:39.734Z,80.23
2024-03-13T05:58:12.099Z,80.17
2024-03-13T05:58:43.972Z,79.94
2024-03-13T05:59:15.780Z,80.28
2024-03-13T05:59:47.760Z,80.38
2024-03-13T06:00:20.856Z,80.46
2024-03-13T06:00:53.847Z,80.22
2024-03-13T06:01:28.433Z,80.38
2024-03-13T06:02:01.226Z,80.32
2024-03-13T06:02:33.626Z,80.25
2024-03-13T06:03:05.598Z,80.27
2024-03-13T06:03:37.714Z,80.36
2024-03-13T06:04:09.591Z,80.52
2024-03-13T06:04:41.523Z,80.51
2024-03-13T06:05:15.806Z,80.41
2024-03-13T06:05:47.677Z,79.54
2024-03-13T06:06:19.525Z,79.56
2024-03-13T06:06:52.622Z,80.37
2024-03-13T06:07:24.540Z,79.97
2024-03-13T06:07:59.763Z,80.16
2024-03-13T06:08:33.117Z,79.87
2024-03-13T06:09:04.961Z,79.99
2024-03-13T06:09:39.694Z,79.60
2024-03-13T06:10:12.023Z,79.64
2024-03-13T06:10:44.206Z,79.65
2024-03-13T06:11:19.948Z,79.54
2024-03-13T06:11:51.873Z,79.10
2024-03-13T06:12:23.770Z,79.25
2024-03-13T06:12:55.656Z,79.23
2024-03-13T06:13:27.617Z,79.21
2024-03-13T06:14:00.419Z,79.37
2024-03-13T06:14:32.308Z,79.69
2024-03-13T06:15:08.041Z,79.58
2024-03-13T06:15:39.856Z,79.26
2024-03-13T06:16:11.768Z,79.59
2024-03-13T06:16:43.724Z,79.35
2024-03-13T06:17:15.564Z,78.77
2024-03-13T06:17:47.726Z,78.85
2024-03-13T06:18:19.762Z,78.56
2024-03-13T06:18:51.899Z,78.41
2024-03-13T06:19:24.302Z,78.13
2024-03-13T06:19:56.199Z,78.31
2024-03-13T06:20:28.037Z,77.91
2024-03-13T06:20:59.882Z,77.94
2024-03-13T06:21:31.917Z,78.09
2024-03-13T06:22:03.794Z,77.61
2024-03-13T06:22:37.033Z,77.63
2024-03-13T06:23:09.002Z,77.35
2024-03-13T06:23:49.434Z,77.53
2024-03-13T06:24:31.519Z,77.15
2024-03-13T06:25:07.589Z,76.98
2024-03-13T06:25:40.408Z,76.78
2024-03-13T06:26:18.070Z,76.65
2024-03-13T06:26:51.787Z,76.33
2024-03-13T06:27:28.634Z,76.78
2024-03-13T06:28:23.115Z,76.08
2024-03-13T06:29:14.209Z,75.50
2024-03-13T06:29:59.358Z,75.27
2024-03-13T06:30:32.337Z,75.35
2024-03-13T06:31:04.461Z,75.40
2024-03-13T06:31:42.125Z,75.70
2024-03-13T06:32:15.742Z,75.36
2024-03-13T06:32:47.598Z,74.83
2024-03-13T06:33:19.509Z,74.68
2024-03-13T06:33:53.406Z,74.45
2024-03-13T06:34:25.317Z,74.62
2024-03-13T06:34:57.749Z,74.48
2024-03-13T06:35:32.119Z,74.74
2024-03-13T06:36:04.030Z,74.26
2024-03-13T06:36:37.843Z,73.82
2024-03-13T06:37:09.762Z,73.80
2024-03-13T06:37:41.699Z,73.51
2024-03-13T06:38:13.602Z,73.53
2024-03-13T06:38:47.383Z,72.76
2024-03-13T06:39:54.796Z,73.49
2024-03-13T06:40:26.912Z,72.21
2024-03-13T06:40:58.794Z,72.41
2024-03-13T06:41:30.792Z,71.82
2024-03-13T06:42:02.607Z,72.09
2024-03-13T06:42:34.438Z,72.08
2024-03-13T06:43:06.372Z,72.46
2024-03-13T06:43:38.317Z,71.38
2024-03-13T06:44:10.136Z,71.00
2024-03-13T06:44:42.013Z,72.09
2024-03-13T06:45:21.285Z,71.23
2024-03-13T06:45:59.751Z,71.33
2024-03-13T06:46:31.691Z,71.32
2024-03-13T06:47:03.602Z,70.92
2024-03-13T06:47:35.519Z,71.02
2024-03-13T06:48:07.566Z,71.41
2024-03-13T06:48:39.540Z,71.46
2024-03-13T06:49:11.452Z,71.26
2024-03-13T06:49:44.754Z,71.06
2024-03-13T06:50:50.366Z,71.34
2024-03-13T06:51:22.529Z,70.99
2024-03-13T06:51:54.423Z,70.50
2024-03-13T06:52:26.312Z,71.24
2024-03-13T06:52:58.260Z,70.51
2024-03-13T06:53:30.099Z,70.32
2024-03-13T06:54:01.973Z,70.92
2024-03-13T06:54:33.798Z,70.73
2024-03-13T06:55:05.690Z,70.33
2024-03-13T06:55:37.600Z,70.07
2024-03-13T06:56:09.438Z,69.90
2024-03-13T06:56:41.367Z,69.91
2024-03-13T06:57:15.906Z,69.14
2024-03-13T06:57:47.770Z,69.63
2024-03-13T06:58:19.589Z,69.52
2024-03-13T06:58:51.571Z,69.35
2024-03-13T06:59:24.571Z,69.03
2024-03-13T06:59:59.996Z,69.40
2024-03-13T07:00:34.323Z,69.96
2024-03-13T07:01:15.440Z,70.54
2024-03-13T07:01:47.786Z,69.64
2024-03-13T07:02:19.705Z,69.30
2024-03-13T07:02:51.645Z,68.92
2024-03-13T07:03:25.035Z,68.90
2024-03-13T07:03:57.323Z,69.28
2024-03-13T07:04:30.460Z,69.04
2024-03-13T07:05:02.332Z,69.03
2024-03-13T07:05:34.195Z,68.68
2024-03-13T07:06:07.539Z,69.31
2024-03-13T07:06:42.694Z,69.31
2024-03-13T07:07:14.614Z,69.96
2024-03-13T07:07:46.508Z,68.89
2024-03-13T07:08:19.452Z,68.51
2024-03-13T07:08:51.265Z,68.59
2024-03-13T07:09:23.078Z,69.09
2024-03-13T07:09:56.016Z,67.89
2024-03-13T07:10:28.074Z,67.51
2024-03-13T07:11:00.545Z,68.61
2024-03-13T07:11:32.533Z,67.70
2024-03-13T07:12:05.470Z,67.48